Time;durP1;ratioP1;P1;durP2;ratioP2;P2;SDS_P1;SDS_P2;PMS_P1;PMS_P2;Temp;Humidity;BMP_temperature;BMP_pressure;BME280_temperature;BME280_humidity;BME280_pressure;Samples;Min_cycle;Max_cycle;Signal;HPM_P1;HPM_P2
2021/06/14 00:04:13;;;;;;;3.90;1.70;;;;;;;;;;10200208;28;20074;-61
2021/06/14 00:09:15;;;;;;;4.68;2.63;;;;;;;;;;10201443;28;20070;-61
2021/06/14 00:14:13;;;;;;;5.07;1.60;;;;;;;;;;10201419;28;20100;-62
2021/06/14 00:19:12;;;;;;;2.70;1.90;;;;;;;;;;10197889;28;20073;-61
2021/06/14 00:24:12;;;;;;;1.88;1.50;;;;;;;;;;10197629;28;20069;-62
2021/06/14 00:29:10;;;;;;;4.30;1.85;;;;;;;;;;10198413;28;20077;-61
2021/06/14 00:34:09;;;;;;;2.83;1.48;;;;;;;;;;10199799;28;20057;-61
2021/06/14 00:39:07;;;;;;;1.70;1.60;;;;;;;;;;10200494;28;20065;-62
2021/06/14 00:44:07;;;;;;;8.40;2.67;;;;;;;;;;10199887;28;20532;-62
2021/06/14 00:49:06;;;;;;;3.92;1.85;;;;;;;;;;10198258;28;20057;-62
2021/06/14 00:54:04;;;;;;;5.40;1.70;;;;;;;;;;10198532;28;20076;-62
2021/06/14 00:59:04;;;;;;;3.38;1.80;;;;;;;;;;10198097;28;20057;-62
2021/06/14 01:04:04;;;;;;;2.95;1.85;;;;;;;;;;10199629;28;20080;-62
2021/06/14 01:09:03;;;;;;;4.40;1.77;;;;;;;;;;10199274;28;20050;-62
2021/06/14 01:14:05;;;;;;;2.30;1.70;;;;;;;;;;10197568;28;20062;-62
2021/06/14 01:19:13;;;;;;;2.22;1.73;;;;;;;;;;10199144;28;20085;-62
2021/06/14 01:24:32;;;;;;;7.70;1.75;;;;;;;;;;10198799;28;20085;-62
2021/06/14 01:29:34;;;;;;;2.53;1.52;;;;;;;;;;10198779;28;20058;-62
2021/06/14 01:34:35;;;;;;;7.10;2.15;;;;;;;;;;10198508;28;20060;-62
2021/06/14 01:39:36;;;;;;;4.28;2.15;;;;;;;;;;10198205;28;20073;-62
2021/06/14 01:44:38;;;;;;;3.97;1.98;;;;;;;;;;10196571;28;20050;-62
2021/06/14 01:49:39;;;;;;;2.13;1.67;;;;;;;;;;10197153;28;20092;-62
2021/06/14 01:54:47;;;;;;;3.13;1.95;;;;;;;;;;10196155;28;20431;-62
2021/06/14 01:59:59;;;;;;;5.30;2.35;;;;;;;;;;10197568;28;20073;-62
2021/06/14 02:05:12;;;;;;;3.33;2.03;;;;;;;;;;10201601;28;20058;-62
2021/06/14 02:10:12;;;;;;;3.72;1.80;;;;;;;;;;10197454;28;20060;-62
2021/06/14 02:15:16;;;;;;;2.13;1.92;;;;;;;;;;10196116;28;20089;-61
2021/06/14 02:20:15;;;;;;;1.92;1.60;;;;;;;;;;10195173;28;20164;-61
2021/06/14 02:25:14;;;;;;;3.78;1.88;;;;;;;;;;10193943;28;20053;-61
2021/06/14 02:30:17;;;;;;;8.02;1.95;;;;;;;;;;10194963;28;20075;-61
2021/06/14 02:35:17;;;;;;;9.15;2.13;;;;;;;;;;10194547;28;20050;-61
2021/06/14 02:40:16;;;;;;;4.28;2.30;;;;;;;;;;10193844;28;20053;-61
2021/06/14 02:45:16;;;;;;;3.10;2.20;;;;;;;;;;10196481;28;20120;-61
2021/06/14 02:50:17;;;;;;;5.93;2.40;;;;;;;;;;10194979;28;20068;-62
2021/06/14 02:55:17;;;;;;;3.40;2.20;;;;;;;;;;10195632;28;20096;-62
2021/06/14 03:00:18;;;;;;;7.82;1.90;;;;;;;;;;10195012;28;20054;-60
2021/06/14 03:05:19;;;;;;;3.03;1.73;;;;;;;;;;10189955;28;20077;-60
2021/06/14 03:10:17;;;;;;;5.15;2.03;;;;;;;;;;10193216;28;20080;-62
2021/06/14 03:15:16;;;;;;;4.72;1.77;;;;;;;;;;10190855;28;20089;-61
2021/06/14 03:20:16;;;;;;;5.50;2.00;;;;;;;;;;10193568;28;20133;-62
2021/06/14 03:25:15;;;;;;;3.17;2.53;;;;;;;;;;10191791;28;20069;-61
2021/06/14 03:30:14;;;;;;;2.30;2.10;;;;;;;;;;10192400;28;20058;-61
2021/06/14 03:35:13;;;;;;;5.10;2.55;;;;;;;;;;10190411;28;20101;-61
2021/06/14 03:40:14;;;;;;;5.85;2.75;;;;;;;;;;10192512;28;20073;-61
2021/06/14 03:45:13;;;;;;;4.57;2.67;;;;;;;;;;10196918;28;20089;-61
2021/06/14 03:50:12;;;;;;;5.50;3.63;;;;;;;;;;10200627;28;20085;-60
2021/06/14 03:55:11;;;;;;;5.40;3.72;;;;;;;;;;10200321;28;20045;-61
2021/06/14 04:00:11;;;;;;;7.80;3.90;;;;;;;;;;10200671;28;20080;-62
2021/06/14 04:05:14;;;;;;;7.30;3.00;;;;;;;;;;10199971;28;20431;-62
2021/06/14 04:10:27;;;;;;;5.70;3.95;;;;;;;;;;10203182;28;20088;-62
2021/06/14 04:15:27;;;;;;;4.93;2.40;;;;;;;;;;10200353;28;20503;-62
2021/06/14 04:20:25;;;;;;;7.32;3.15;;;;;;;;;;10199887;28;20077;-62
2021/06/14 04:25:24;;;;;;;4.22;3.22;;;;;;;;;;10200066;28;20057;-62
2021/06/14 04:30:22;;;;;;;12.88;3.30;;;;;;;;;;10199561;28;20138;-62
2021/06/14 04:35:22;;;;;;;6.80;3.05;;;;;;;;;;10198941;28;20057;-62
2021/06/14 04:40:20;;;;;;;7.55;2.70;;;;;;;;;;10199196;28;20078;-62
2021/06/14 04:45:18;;;;;;;3.65;2.92;;;;;;;;;;10199308;28;20049;-62
2021/06/14 04:50:17;;;;;;;5.47;2.75;;;;;;;;;;10197235;28;20216;-62
2021/06/14 04:55:17;;;;;;;9.60;2.75;;;;;;;;;;10198519;28;20508;-62
2021/06/14 05:00:17;;;;;;;3.60;2.72;;;;;;;;;;10198786;28;20397;-62
2021/06/14 05:05:15;;;;;;;6.07;3.20;;;;;;;;;;10198327;28;20081;-62
2021/06/14 05:10:13;;;;;;;5.25;3.22;;;;;;;;;;10197586;28;20053;-62
2021/06/14 05:15:13;;;;;;;3.60;3.03;;;;;;;;;;10198059;28;20042;-62
2021/06/14 05:20:12;;;;;;;3.70;3.15;;;;;;;;;;10197423;28;20347;-61
2021/06/14 05:25:11;;;;;;;11.23;3.75;;;;;;;;;;10197161;28;20046;-62
2021/06/14 05:30:10;;;;;;;5.13;3.17;;;;;;;;;;10197105;28;20088;-61
2021/06/14 05:35:10;;;;;;;5.93;3.30;;;;;;;;;;10197022;28;20096;-61
2021/06/14 05:40:09;;;;;;;4.15;2.83;;;;;;;;;;10196810;28;20430;-62
2021/06/14 05:45:08;;;;;;;9.38;3.50;;;;;;;;;;10196451;28;20553;-59
2021/06/14 05:50:07;;;;;;;11.20;9.13;;;;;;;;;;10195355;28;20054;-59
2021/06/14 05:55:08;;;;;;;5.22;4.07;;;;;;;;;;10196002;28;20069;-59
2021/06/14 06:00:07;;;;;;;6.05;3.75;;;;;;;;;;10194811;28;20107;-59
2021/06/14 06:05:10;;;;;;;5.65;3.88;;;;;;;;;;10200076;28;20049;-59
2021/06/14 06:10:10;;;;;;;7.53;3.70;;;;;;;;;;10194536;28;20088;-59
2021/06/14 06:15:10;;;;;;;5.75;3.38;;;;;;;;;;10195511;28;20041;-58
2021/06/14 06:20:09;;;;;;;3.97;3.25;;;;;;;;;;10194912;28;20084;-59
2021/06/14 06:25:09;;;;;;;7.15;3.30;;;;;;;;;;10194813;28;20085;-60
2021/06/14 06:30:10;;;;;;;10.52;3.47;;;;;;;;;;10194612;28;20065;-59
2021/06/14 06:35:08;;;;;;;3.90;2.95;;;;;;;;;;10194616;28;20045;-59
2021/06/14 06:40:07;;;;;;;10.82;3.78;;;;;;;;;;10194219;28;20483;-58
2021/06/14 06:45:07;;;;;;;11.45;4.90;;;;;;;;;;10193650;28;20041;-58
2021/06/14 06:50:07;;;;;;;8.82;4.13;;;;;;;;;;10192885;28;20542;-58
2021/06/14 06:55:07;;;;;;;9.95;4.03;;;;;;;;;;10193845;28;20046;-58
2021/06/14 07:00:06;;;;;;;5.85;3.55;;;;;;;;;;10192882;28;20073;-59
2021/06/14 07:05:05;;;;;;;7.43;3.78;;;;;;;;;;10193597;28;20077;-60
2021/06/14 07:10:06;;;;;;;6.72;3.72;;;;;;;;;;10193325;28;20507;-60
2021/06/14 07:15:24;;;;;;;8.30;4.15;;;;;;;;;;10192714;28;20042;-60
2021/06/14 07:20:23;;;;;;;12.77;7.85;;;;;;;;;;10193303;28;20084;-60
2021/06/14 07:25:22;;;;;;;9.27;4.47;;;;;;;;;;10193955;28;20463;-59
2021/06/14 07:30:22;;;;;;;5.10;3.67;;;;;;;;;;10193347;28;20077;-59
2021/06/14 07:35:20;;;;;;;9.50;3.72;;;;;;;;;;10192714;28;20049;-59
2021/06/14 07:40:18;;;;;;;8.25;3.75;;;;;;;;;;10191666;28;20089;-60
2021/06/14 07:45:23;;;;;;;7.88;3.42;;;;;;;;;;10193146;28;20053;-59
2021/06/14 07:50:21;;;;;;;4.90;3.17;;;;;;;;;;10192337;28;20081;-60
2021/06/14 07:55:20;;;;;;;9.35;3.00;;;;;;;;;;10192865;28;20038;-59
2021/06/14 08:00:20;;;;;;;9.25;3.13;;;;;;;;;;10193090;28;20084;-59
2021/06/14 08:05:18;;;;;;;6.88;3.50;;;;;;;;;;10192445;28;20053;-59
2021/06/14 08:10:17;;;;;;;7.88;3.10;;;;;;;;;;10192548;28;20065;-60
2021/06/14 08:15:17;;;;;;;7.88;3.72;;;;;;;;;;10192468;28;20042;-60
2021/06/14 08:20:23;;;;;;;4.22;2.88;;;;;;;;;;10192435;28;20507;-60
2021/06/14 08:25:21;;;;;;;6.70;3.28;;;;;;;;;;10199058;28;20076;-60
2021/06/14 08:30:21;;;;;;;12.35;7.25;;;;;;;;;;10199511;28;20054;-60
2021/06/14 08:35:22;;;;;;;6.38;3.30;;;;;;;;;;10198872;28;20046;-59
2021/06/14 08:40:22;;;;;;;8.50;4.18;;;;;;;;;;10199510;28;20077;-60
2021/06/14 08:45:20;;;;;;;9.00;5.00;;;;;;;;;;10199279;28;20474;-60
2021/06/14 08:50:20;;;;;;;6.78;3.35;;;;;;;;;;10198628;28;20058;-59
2021/06/14 08:55:20;;;;;;;5.38;3.28;;;;;;;;;;10197520;28;20046;-59
2021/06/14 09:00:20;;;;;;;9.27;3.80;;;;;;;;;;10198810;28;20089;-60
2021/06/14 09:05:20;;;;;;;6.22;3.45;;;;;;;;;;10198003;28;20547;-60
2021/06/14 09:10:23;;;;;;;6.22;3.40;;;;;;;;;;10198481;28;20049;-60
2021/06/14 09:15:25;;;;;;;3.85;3.00;;;;;;;;;;10198045;28;20360;-60
2021/06/14 09:20:25;;;;;;;5.78;3.58;;;;;;;;;;10197541;28;20080;-60
2021/06/14 09:25:24;;;;;;;9.27;3.47;;;;;;;;;;10197172;28;20108;-60
2021/06/14 09:30:24;;;;;;;3.03;2.58;;;;;;;;;;10197141;28;20053;-60
2021/06/14 09:35:23;;;;;;;6.63;2.88;;;;;;;;;;10196182;28;20455;-60
2021/06/14 09:40:28;;;;;;;5.68;2.80;;;;;;;;;;10197197;28;20081;-60
2021/06/14 09:45:26;;;;;;;7.10;2.83;;;;;;;;;;10196076;28;20057;-60
2021/06/14 09:50:28;;;;;;;7.30;4.10;;;;;;;;;;10195580;28;20082;-60
2021/06/14 09:55:29;;;;;;;4.90;2.72;;;;;;;;;;10196244;28;20069;-60
2021/06/14 10:00:27;;;;;;;4.65;3.15;;;;;;;;;;10195974;28;20462;-60
2021/06/14 10:05:25;;;;;;;4.97;3.47;;;;;;;;;;10195488;28;20056;-60
2021/06/14 10:10:25;;;;;;;23.25;3.83;;;;;;;;;;10194970;28;20069;-60
2021/06/14 10:15:32;;;;;;;2.88;2.33;;;;;;;;;;10195663;28;20084;-60
2021/06/14 10:20:31;;;;;;;7.32;2.42;;;;;;;;;;10194677;28;20084;-59
2021/06/14 10:25:29;;;;;;;5.03;3.38;;;;;;;;;;10195371;28;20466;-59
2021/06/14 10:30:28;;;;;;;5.78;2.70;;;;;;;;;;10195152;28;20061;-59
2021/06/14 10:35:27;;;;;;;10.60;4.03;;;;;;;;;;10195270;28;20080;-59
2021/06/14 10:40:27;;;;;;;5.90;3.20;;;;;;;;;;10193036;28;20454;-59
2021/06/14 10:45:27;;;;;;;6.82;4.05;;;;;;;;;;10193672;28;20077;-58
2021/06/14 10:50:26;;;;;;;10.45;4.65;;;;;;;;;;10193540;28;20085;-58
2021/06/14 10:55:27;;;;;;;9.65;7.40;;;;;;;;;;10194744;28;20529;-59
2021/06/14 11:00:27;;;;;;;8.52;4.07;;;;;;;;;;10193992;28;20077;-58
2021/06/14 11:05:32;;;;;;;9.93;5.43;;;;;;;;;;10193781;28;20072;-58
2021/06/14 11:10:32;;;;;;;6.57;4.43;;;;;;;;;;10194045;28;20085;-58
2021/06/14 11:15:33;;;;;;;4.30;3.55;;;;;;;;;;10193859;28;20053;-59
2021/06/14 11:20:33;;;;;;;8.82;4.82;;;;;;;;;;10193276;28;20080;-59
2021/06/14 11:25:42;;;;;;;4.93;3.30;;;;;;;;;;10193564;28;20080;-59
2021/06/14 11:30:42;;;;;;;5.05;3.30;;;;;;;;;;10193434;28;20078;-58
2021/06/14 11:35:40;;;;;;;9.48;3.95;;;;;;;;;;10193465;28;20411;-58
2021/06/14 11:40:40;;;;;;;5.82;3.60;;;;;;;;;;10193117;28;20474;-59
2021/06/14 11:45:41;;;;;;;3.40;2.30;;;;;;;;;;10192737;28;20054;-59
2021/06/14 11:50:39;;;;;;;3.78;2.30;;;;;;;;;;10192635;28;20065;-59
2021/06/14 11:55:39;;;;;;;4.20;2.33;;;;;;;;;;10194020;28;20073;-59
2021/06/14 12:00:39;;;;;;;5.78;4.45;;;;;;;;;;10200467;28;20077;-58
2021/06/14 12:05:37;;;;;;;3.53;2.70;;;;;;;;;;10200323;28;20046;-58
2021/06/14 12:10:36;;;;;;;5.38;1.65;;;;;;;;;;10200645;28;20054;-60
2021/06/14 12:15:56;;;;;;;2.63;1.60;;;;;;;;;;10200049;28;20065;-59
2021/06/14 12:20:56;;;;;;;12.45;9.68;;;;;;;;;;10200034;28;20112;-59
2021/06/14 12:25:57;;;;;;;4.25;2.55;;;;;;;;;;10200271;28;20092;-60
2021/06/14 12:31:02;;;;;;;4.97;2.22;;;;;;;;;;10199932;28;20514;-59
2021/06/14 12:36:01;;;;;;;4.40;2.67;;;;;;;;;;10198554;28;20080;-59
2021/06/14 12:40:59;;;;;;;6.07;3.13;;;;;;;;;;10199435;28;20534;-59
2021/06/14 12:45:58;;;;;;;3.45;2.10;;;;;;;;;;10199157;28;20061;-59
2021/06/14 12:50:58;;;;;;;4.20;2.10;;;;;;;;;;10199022;28;20171;-59
2021/06/14 12:55:57;;;;;;;5.18;2.95;;;;;;;;;;10199698;28;20447;-60
2021/06/14 13:06:10;;;;;;;5.30;3.88;;;;;;;;;;10197276;28;20082;-60
2021/06/14 13:11:10;;;;;;;3.35;2.42;;;;;;;;;;10198309;28;20045;-60
2021/06/14 13:16:09;;;;;;;5.25;2.78;;;;;;;;;;10198323;28;20041;-59
2021/06/14 13:21:08;;;;;;;5.25;2.15;;;;;;;;;;10197600;28;20085;-59
2021/06/14 13:26:08;;;;;;;3.00;2.22;;;;;;;;;;10198083;28;20506;-60
2021/06/14 13:31:09;;;;;;;5.15;3.20;;;;;;;;;;10197480;28;20049;-60
2021/06/14 13:36:08;;;;;;;3.95;2.63;;;;;;;;;;10197311;28;20046;-59
2021/06/14 13:41:09;;;;;;;5.72;2.22;;;;;;;;;;10197276;28;20519;-60
2021/06/14 13:46:07;;;;;;;6.93;2.20;;;;;;;;;;10197406;28;20057;-59
2021/06/14 13:51:12;;;;;;;8.88;2.78;;;;;;;;;;10196723;28;20093;-60
2021/06/14 13:56:13;;;;;;;6.90;2.58;;;;;;;;;;10196827;28;20086;-59
2021/06/14 14:01:13;;;;;;;16.02;6.95;;;;;;;;;;10196203;28;20077;-59
2021/06/14 14:06:12;;;;;;;2.75;1.75;;;;;;;;;;10196611;28;20085;-60
2021/06/14 14:11:12;;;;;;;5.93;2.03;;;;;;;;;;10195961;28;20465;-59
2021/06/14 14:16:10;;;;;;;12.00;2.42;;;;;;;;;;10195662;28;20046;-60
2021/06/14 14:21:08;;;;;;;4.85;3.03;;;;;;;;;;10195086;28;20077;-60
2021/06/14 14:26:07;;;;;;;5.75;2.88;;;;;;;;;;10195260;28;20070;-60
2021/06/14 14:31:07;;;;;;;4.20;2.45;;;;;;;;;;10195593;28;20080;-60
2021/06/14 14:36:07;;;;;;;6.40;4.85;;;;;;;;;;10194980;28;20418;-60
2021/06/14 14:41:07;;;;;;;4.47;2.70;;;;;;;;;;10194604;28;20045;-60
2021/06/14 14:46:07;;;;;;;4.70;2.70;;;;;;;;;;10194714;28;20053;-60
2021/06/14 14:51:06;;;;;;;11.43;6.47;;;;;;;;;;10191213;28;20510;-59
2021/06/14 14:56:05;;;;;;;9.35;4.20;;;;;;;;;;10188435;28;20069;-59
2021/06/14 15:01:03;;;;;;;6.07;2.80;;;;;;;;;;10193459;28;20100;-60
2021/06/14 15:06:03;;;;;;;4.05;3.38;;;;;;;;;;10194803;28;20076;-59
2021/06/14 15:11:01;;;;;;;3.25;2.90;;;;;;;;;;10192516;28;20092;-59
2021/06/14 15:15:59;;;;;;;3.35;2.63;;;;;;;;;;10194510;28;20056;-57
2021/06/14 15:21:13;;;;;;;6.35;3.53;;;;;;;;;;10191968;28;20508;-59
2021/06/14 15:26:12;;;;;;;9.48;5.70;;;;;;;;;;10182564;28;20089;-58
2021/06/14 15:31:11;;;;;;;21.63;17.77;;;;;;;;;;10179676;28;20038;-59
2021/06/14 15:36:11;;;;;;;9.75;8.30;;;;;;;;;;10204350;28;20503;-59
2021/06/14 15:41:10;;;;;;;6.30;3.47;;;;;;;;;;10193619;28;20085;-59
2021/06/14 15:46:09;;;;;;;4.13;2.20;;;;;;;;;;10186428;28;20504;-62
2021/06/14 15:51:08;;;;;;;3.45;2.13;;;;;;;;;;10191066;28;20049;-62
2021/06/14 15:56:06;;;;;;;5.20;2.85;;;;;;;;;;10206901;28;20078;-62
2021/06/14 16:01:06;;;;;;;3.55;2.50;;;;;;;;;;10205734;28;20533;-62
2021/06/14 16:06:05;;;;;;;7.53;4.63;;;;;;;;;;10205753;28;20061;-61
2021/06/14 16:11:04;;;;;;;4.88;3.42;;;;;;;;;;10206584;28;20073;-62
2021/06/14 16:16:03;;;;;;;7.30;3.05;;;;;;;;;;10207043;28;20046;-62
2021/06/14 16:21:03;;;;;;;4.10;2.70;;;;;;;;;;10206914;28;20495;-62
2021/06/14 16:26:01;;;;;;;4.10;2.83;;;;;;;;;;10206412;28;20054;-59
2021/06/14 16:30:59;;;;;;;6.25;2.50;;;;;;;;;;10203850;28;20081;-62
2021/06/14 16:35:59;;;;;;;6.45;3.03;;;;;;;;;;10189877;28;20117;-60
2021/06/14 16:40:59;;;;;;;6.82;2.97;;;;;;;;;;10200746;28;20711;-62
2021/06/14 16:45:58;;;;;;;4.50;3.00;;;;;;;;;;10198631;28;20060;-63
2021/06/14 16:50:56;;;;;;;6.47;3.03;;;;;;;;;;10199513;28;20081;-62
2021/06/14 16:55:54;;;;;;;4.88;2.97;;;;;;;;;;10197854;28;20077;-62
2021/06/14 17:00:54;;;;;;;6.55;3.80;;;;;;;;;;10192719;28;20104;-62
2021/06/14 17:05:52;;;;;;;14.35;7.97;;;;;;;;;;10190448;28;20131;-61
2021/06/14 17:10:51;;;;;;;5.13;3.95;;;;;;;;;;10190319;28;20477;-62
2021/06/14 17:15:49;;;;;;;4.28;2.35;;;;;;;;;;10198658;28;20065;-62
2021/06/14 17:20:49;;;;;;;6.20;3.35;;;;;;;;;;10197541;28;20069;-62
2021/06/14 17:25:47;;;;;;;8.10;2.67;;;;;;;;;;10196331;28;20606;-63
2021/06/14 17:30:46;;;;;;;4.68;2.63;;;;;;;;;;10198954;28;20080;-62
2021/06/14 17:35:44;;;;;;;8.23;4.10;;;;;;;;;;10198665;28;20077;-62
2021/06/14 17:40:44;;;;;;;5.78;3.35;;;;;;;;;;10197985;28;20046;-62
2021/06/14 17:45:42;;;;;;;7.93;4.57;;;;;;;;;;10197892;28;20487;-62
2021/06/14 17:50:42;;;;;;;7.80;3.38;;;;;;;;;;10197635;28;20057;-62
2021/06/14 17:55:41;;;;;;;5.03;3.47;;;;;;;;;;10194228;28;20072;-63
2021/06/14 18:00:41;;;;;;;5.93;4.38;;;;;;;;;;10191413;28;20064;-61
2021/06/14 18:05:40;;;;;;;7.47;3.10;;;;;;;;;;10189734;28;20503;-63
2021/06/14 18:10:38;;;;;;;6.15;2.80;;;;;;;;;;10195774;28;20467;-63
2021/06/14 18:15:37;;;;;;;8.15;3.63;;;;;;;;;;10192788;28;20239;-61
2021/06/14 18:20:38;;;;;;;7.60;5.13;;;;;;;;;;10205805;28;20110;-63
2021/06/14 18:25:36;;;;;;;8.05;3.72;;;;;;;;;;10185399;28;20096;-63
2021/06/14 18:30:36;;;;;;;6.13;4.80;;;;;;;;;;10193127;28;20461;-61
2021/06/14 18:35:34;;;;;;;4.35;2.88;;;;;;;;;;10193283;28;20666;-63
2021/06/14 18:40:34;;;;;;;7.35;2.80;;;;;;;;;;10194376;28;20065;-62
2021/06/14 18:45:33;;;;;;;6.15;3.83;;;;;;;;;;10187966;28;20336;-62
2021/06/14 18:50:31;;;;;;;7.43;4.65;;;;;;;;;;10195521;28;20092;-63
2021/06/14 18:55:29;;;;;;;9.50;4.43;;;;;;;;;;10194676;28;20080;-62
2021/06/14 19:00:30;;;;;;;14.40;5.47;;;;;;;;;;10195501;28;20513;-62
2021/06/14 19:05:28;;;;;;;7.85;5.28;;;;;;;;;;10191273;28;20108;-62
2021/06/14 19:10:27;;;;;;;9.98;6.65;;;;;;;;;;10179555;28;20069;-62
2021/06/14 19:15:25;;;;;;;8.63;4.72;;;;;;;;;;10190580;28;20081;-62
2021/06/14 19:20:25;;;;;;;4.93;2.53;;;;;;;;;;10192815;28;20525;-62
2021/06/14 19:25:23;;;;;;;6.82;2.67;;;;;;;;;;10187565;28;20324;-61
2021/06/14 19:30:23;;;;;;;7.75;2.20;;;;;;;;;;10195057;28;20062;-62
2021/06/14 19:35:21;;;;;;;3.45;2.45;;;;;;;;;;10194089;28;20483;-62
2021/06/14 19:40:21;;;;;;;2.78;2.03;;;;;;;;;;10185933;28;20509;-62
2021/06/14 19:45:21;;;;;;;3.83;2.65;;;;;;;;;;10178051;28;20545;-62
2021/06/14 19:50:19;;;;;;;7.10;1.98;;;;;;;;;;10191382;28;20089;-62
2021/06/14 19:55:18;;;;;;;3.70;1.58;;;;;;;;;;10192279;28;20057;-62
2021/06/14 20:00:19;;;;;;;2.55;2.25;;;;;;;;;;10192735;28;20087;-62
2021/06/14 20:05:17;;;;;;;6.30;2.67;;;;;;;;;;10192465;28;20081;-62
2021/06/14 20:10:16;;;;;;;3.20;1.92;;;;;;;;;;10194015;28;20058;-62
2021/06/14 20:15:16;;;;;;;7.07;2.20;;;;;;;;;;10192491;28;20053;-62
2021/06/14 20:20:16;;;;;;;3.47;2.25;;;;;;;;;;10199092;28;20050;-62
2021/06/14 20:25:15;;;;;;;5.20;2.97;;;;;;;;;;10201121;28;20096;-61
2021/06/14 20:30:15;;;;;;;3.40;1.90;;;;;;;;;;10200256;28;20050;-62
2021/06/14 20:35:14;;;;;;;5.55;2.28;;;;;;;;;;10200737;28;20119;-62
2021/06/14 20:40:14;;;;;;;4.95;2.42;;;;;;;;;;10200614;28;20105;-61
2021/06/14 20:45:13;;;;;;;5.80;2.35;;;;;;;;;;10200389;28;20475;-61
2021/06/14 20:50:12;;;;;;;6.60;2.65;;;;;;;;;;10199276;28;20061;-62
2021/06/14 20:55:11;;;;;;;2.70;2.05;;;;;;;;;;10199945;28;20458;-61
2021/06/14 21:00:13;;;;;;;5.15;2.53;;;;;;;;;;10199468;28;20070;-62
2021/06/14 21:05:12;;;;;;;6.93;3.00;;;;;;;;;;10197476;28;20443;-62
2021/06/14 21:10:11;;;;;;;9.07;3.08;;;;;;;;;;10195619;28;20081;-61
2021/06/14 21:15:12;;;;;;;5.72;2.40;;;;;;;;;;10194883;28;20086;-61
2021/06/14 21:20:12;;;;;;;4.80;2.95;;;;;;;;;;10196075;28;20078;-61
2021/06/14 21:25:11;;;;;;;6.70;2.97;;;;;;;;;;10198764;28;20089;-60
2021/06/14 21:30:13;;;;;;;6.90;2.95;;;;;;;;;;10196685;28;20079;-61
2021/06/14 21:35:12;;;;;;;4.40;2.83;;;;;;;;;;10198688;28;20092;-62
2021/06/14 21:40:12;;;;;;;7.10;2.60;;;;;;;;;;10197306;28;20038;-61
2021/06/14 21:45:12;;;;;;;3.53;2.30;;;;;;;;;;10197898;28;20081;-61
2021/06/14 21:50:10;;;;;;;6.72;1.95;;;;;;;;;;10197654;28;20058;-62
2021/06/14 21:55:10;;;;;;;3.15;2.08;;;;;;;;;;10197982;28;20076;-62
2021/06/14 22:00:11;;;;;;;3.83;2.05;;;;;;;;;;10197674;28;20042;-62
2021/06/14 22:05:11;;;;;;;3.13;2.25;;;;;;;;;;10201831;28;20054;-62
2021/06/14 22:10:10;;;;;;;5.63;2.40;;;;;;;;;;10196864;28;20045;-61
2021/06/14 22:15:10;;;;;;;4.00;2.50;;;;;;;;;;10196041;28;20480;-62
2021/06/14 22:20:09;;;;;;;4.85;2.80;;;;;;;;;;10197248;28;20049;-62
2021/06/14 22:25:10;;;;;;;4.97;2.80;;;;;;;;;;10196790;28;20104;-62
2021/06/14 22:30:09;;;;;;;5.45;2.80;;;;;;;;;;10196609;28;20073;-62
2021/06/14 22:35:08;;;;;;;3.50;1.60;;;;;;;;;;10196615;28;20403;-62
2021/06/14 22:40:08;;;;;;;5.57;1.85;;;;;;;;;;10195656;28;20073;-61
2021/06/14 22:45:08;;;;;;;3.50;1.40;;;;;;;;;;10196040;28;20084;-62
2021/06/14 22:50:07;;;;;;;4.47;1.70;;;;;;;;;;10195417;28;20061;-62
2021/06/14 22:55:06;;;;;;;1.70;1.45;;;;;;;;;;10195383;28;20049;-62
2021/06/14 23:00:06;;;;;;;3.45;1.55;;;;;;;;;;10195515;28;20407;-62
2021/06/14 23:05:06;;;;;;;3.58;1.48;;;;;;;;;;10195394;28;20077;-62
2021/06/14 23:10:06;;;;;;;5.07;1.70;;;;;;;;;;10195248;28;20041;-62
2021/06/14 23:15:05;;;;;;;3.80;1.45;;;;;;;;;;10195173;28;20050;-62
2021/06/14 23:20:04;;;;;;;4.30;1.70;;;;;;;;;;10195151;28;20077;-62
2021/06/14 23:25:04;;;;;;;2.10;1.60;;;;;;;;;;10194675;28;20081;-62
2021/06/14 23:30:02;;;;;;;2.58;1.63;;;;;;;;;;10194932;28;20057;-61
2021/06/14 23:35:00;;;;;;;1.65;1.40;;;;;;;;;;10194619;28;20484;-62
2021/06/14 23:39:59;;;;;;;3.35;1.25;;;;;;;;;;10192186;28;20431;-62
2021/06/14 23:44:58;;;;;;;1.73;1.30;;;;;;;;;;10194395;28;20088;-62
2021/06/14 23:49:57;;;;;;;4.00;2.13;;;;;;;;;;10193878;28;20530;-62
2021/06/14 23:54:56;;;;;;;4.10;1.38;;;;;;;;;;10200955;28;20085;-62
2021/06/14 23:59:54;;;;;;;3.63;1.58;;;;;;;;;;10201907;28;20494;-62
